sensor_id;sensor_type;location;lat;lon;timestamp;pressure;altitude;pressure_sealevel;temperature;humidity
12987;BME280;58897;51.960;5.582;2023-05-20T00:01:32;102128.69;;;12.86;100.00
12987;BME280;58897;51.960;5.582;2023-05-20T00:03:58;102131.84;;;12.82;100.00
12987;BME280;58897;51.960;5.582;2023-05-20T00:06:25;102125.88;;;12.69;100.00
12987;BME280;58897;51.960;5.582;2023-05-20T00:08:52;102133.44;;;12.65;100.00
12987;BME280;58897;51.960;5.582;2023-05-20T00:11:20;102130.69;;;12.75;100.00
12987;BME280;58897;51.960;5.582;2023-05-20T00:13:47;102137.56;;;12.79;100.00
12987;BME280;58897;51.960;5.582;2023-05-20T00:16:14;102134.00;;;12.78;100.00
12987;BME280;58897;51.960;5.582;2023-05-20T00:18:40;102134.88;;;12.69;100.00
12987;BME280;58897;51.960;5.582;2023-05-20T00:21:07;102132.28;;;12.68;100.00
12987;BME280;58897;51.960;5.582;2023-05-20T00:23:33;102139.44;;;12.59;100.00
12987;BME280;58897;51.960;5.582;2023-05-20T00:26:00;102134.75;;;12.61;100.00
12987;BME280;58897;51.960;5.582;2023-05-20T00:28:27;102138.91;;;12.46;100.00
12987;BME280;58897;51.960;5.582;2023-05-20T00:30:53;102136.31;;;12.45;100.00
12987;BME280;58897;51.960;5.582;2023-05-20T00:33:20;102134.59;;;12.44;100.00
12987;BME280;58897;51.960;5.582;2023-05-20T00:35:47;102127.06;;;12.47;100.00
12987;BME280;58897;51.960;5.582;2023-05-20T00:38:13;102132.03;;;12.61;100.00
12987;BME280;58897;51.960;5.582;2023-05-20T00:40:40;102130.47;;;12.59;100.00
12987;BME280;58897;51.960;5.582;2023-05-20T00:43:06;102134.19;;;12.48;100.00
12987;BME280;58897;51.960;5.582;2023-05-20T00:45:33;102136.31;;;12.45;100.00
12987;BME280;58897;51.960;5.582;2023-05-20T00:48:01;102124.38;;;12.37;100.00
12987;BME280;58897;51.960;5.582;2023-05-20T00:50:30;102123.50;;;12.37;100.00
12987;BME280;58897;51.960;5.582;2023-05-20T00:52:57;102121.38;;;12.41;100.00
12987;BME280;58897;51.960;5.582;2023-05-20T00:55:24;102115.63;;;12.44;100.00
12987;BME280;58897;51.960;5.582;2023-05-20T00:57:52;102116.06;;;12.39;100.00
12987;BME280;58897;51.960;5.582;2023-05-20T01:00:19;102116.38;;;12.36;100.00
12987;BME280;58897;51.960;5.582;2023-05-20T01:02:46;102116.53;;;12.34;100.00
12987;BME280;58897;51.960;5.582;2023-05-20T01:05:13;102111.38;;;12.31;100.00
12987;BME280;58897;51.960;5.582;2023-05-20T01:07:39;102107.41;;;12.35;100.00
12987;BME280;58897;51.960;5.582;2023-05-20T01:10:07;102105.84;;;12.33;100.00
12987;BME280;58897;51.960;5.582;2023-05-20T01:15:08;102108.53;;;12.23;100.00
12987;BME280;58897;51.960;5.582;2023-05-20T01:17:38;102111.25;;;12.23;100.00
12987;BME280;58897;51.960;5.582;2023-05-20T01:20:07;102104.69;;;12.26;100.00
12987;BME280;58897;51.960;5.582;2023-05-20T01:22:51;102111.41;;;12.22;100.00
12987;BME280;58897;51.960;5.582;2023-05-20T01:25:18;102106.69;;;12.24;100.00
12987;BME280;58897;51.960;5.582;2023-05-20T01:27:46;102106.41;;;12.27;100.00
12987;BME280;58897;51.960;5.582;2023-05-20T01:30:15;102105.84;;;12.14;100.00
12987;BME280;58897;51.960;5.582;2023-05-20T01:32:47;102109.53;;;12.03;100.00
12987;BME280;58897;51.960;5.582;2023-05-20T01:35:15;102099.69;;;12.02;100.00
12987;BME280;58897;51.960;5.582;2023-05-20T01:37:42;102102.97;;;12.06;100.00
12987;BME280;58897;51.960;5.582;2023-05-20T01:40:11;102096.00;;;12.13;100.00
12987;BME280;58897;51.960;5.582;2023-05-20T01:42:40;102092.72;;;12.00;100.00
12987;BME280;58897;51.960;5.582;2023-05-20T01:45:08;102101.41;;;12.03;100.00
12987;BME280;58897;51.960;5.582;2023-05-20T01:47:35;102096.88;;;12.04;100.00
12987;BME280;58897;51.960;5.582;2023-05-20T01:50:02;102094.00;;;12.05;100.00
12987;BME280;58897;51.960;5.582;2023-05-20T01:52:28;102096.88;;;12.04;100.00
12987;BME280;58897;51.960;5.582;2023-05-20T01:54:56;102095.28;;;12.01;100.00
12987;BME280;58897;51.960;5.582;2023-05-20T01:57:23;102092.59;;;12.01;100.00
12987;BME280;58897;51.960;5.582;2023-05-20T01:59:50;102093.44;;;12.02;100.00
12987;BME280;58897;51.960;5.582;2023-05-20T02:02:16;102089.03;;;11.91;100.00
12987;BME280;58897;51.960;5.582;2023-05-20T02:04:48;102088.44;;;11.97;100.00
12987;BME280;58897;51.960;5.582;2023-05-20T02:07:17;102089.84;;;11.92;100.00
12987;BME280;58897;51.960;5.582;2023-05-20T02:09:47;102086.88;;;11.95;100.00
12987;BME280;58897;51.960;5.582;2023-05-20T02:12:13;102086.00;;;11.94;100.00
12987;BME280;58897;51.960;5.582;2023-05-20T02:14:44;102085.47;;;11.91;100.00
12987;BME280;58897;51.960;5.582;2023-05-20T02:17:12;102093.16;;;11.86;100.00
12987;BME280;58897;51.960;5.582;2023-05-20T02:19:44;102083.59;;;11.82;100.00
12987;BME280;58897;51.960;5.582;2023-05-20T02:22:13;102086.13;;;11.73;100.00
12987;BME280;58897;51.960;5.582;2023-05-20T02:24:39;102084.00;;;11.77;100.00
12987;BME280;58897;51.960;5.582;2023-05-20T02:27:08;102086.16;;;11.83;100.00
12987;BME280;58897;51.960;5.582;2023-05-20T02:29:35;102085.75;;;11.78;100.00
12987;BME280;58897;51.960;5.582;2023-05-20T02:32:02;102085.59;;;11.80;100.00
12987;BME280;58897;51.960;5.582;2023-05-20T02:34:29;102080.31;;;11.78;100.00
12987;BME280;58897;51.960;5.582;2023-05-20T02:36:57;102087.59;;;11.87;100.00
12987;BME280;58897;51.960;5.582;2023-05-20T02:39:23;102077.47;;;11.80;100.00
12987;BME280;58897;51.960;5.582;2023-05-20T02:41:50;102073.19;;;11.77;100.00
12987;BME280;58897;51.960;5.582;2023-05-20T02:44:16;102070.72;;;11.64;100.00
12987;BME280;58897;51.960;5.582;2023-05-20T02:46:43;102075.00;;;11.67;100.00
12987;BME280;58897;51.960;5.582;2023-05-20T02:49:10;102066.75;;;11.68;100.00
12987;BME280;58897;51.960;5.582;2023-05-20T02:51:36;102075.47;;;11.72;100.00
12987;BME280;58897;51.960;5.582;2023-05-20T02:54:03;102069.47;;;11.68;100.00
12987;BME280;58897;51.960;5.582;2023-05-20T02:56:29;102064.44;;;11.54;100.00
12987;BME280;58897;51.960;5.582;2023-05-20T02:58:57;102064.63;;;11.72;100.00
12987;BME280;58897;51.960;5.582;2023-05-20T03:01:24;102065.03;;;11.67;100.00
12987;BME280;58897;51.960;5.582;2023-05-20T03:03:51;102060.63;;;11.76;100.00
12987;BME280;58897;51.960;5.582;2023-05-20T03:06:17;102066.78;;;11.78;100.00
12987;BME280;58897;51.960;5.582;2023-05-20T03:08:44;102068.75;;;11.76;100.00
12987;BME280;58897;51.960;5.582;2023-05-20T03:11:10;102058.78;;;11.76;100.00
12987;BME280;58897;51.960;5.582;2023-05-20T03:13:37;102061.38;;;11.78;100.00
12987;BME280;58897;51.960;5.582;2023-05-20T03:16:04;102062.09;;;11.70;100.00
12987;BME280;58897;51.960;5.582;2023-05-20T03:18:30;102075.31;;;11.73;100.00
12987;BME280;58897;51.960;5.582;2023-05-20T03:20:57;102074.88;;;11.68;100.00
12987;BME280;58897;51.960;5.582;2023-05-20T03:23:23;102076.44;;;11.71;100.00
12987;BME280;58897;51.960;5.582;2023-05-20T03:25:50;102080.59;;;11.75;100.00
12987;BME280;58897;51.960;5.582;2023-05-20T03:28:16;102085.16;;;11.74;100.00
12987;BME280;58897;51.960;5.582;2023-05-20T03:30:43;102080.41;;;11.67;100.00
12987;BME280;58897;51.960;5.582;2023-05-20T03:33:09;102074.75;;;11.70;100.00
12987;BME280;58897;51.960;5.582;2023-05-20T03:35:36;102079.13;;;11.61;100.00
12987;BME280;58897;51.960;5.582;2023-05-20T03:38:03;102080.69;;;11.64;100.00
12987;BME280;58897;51.960;5.582;2023-05-20T03:40:29;102075.28;;;11.64;100.00
12987;BME280;58897;51.960;5.582;2023-05-20T03:42:56;102082.09;;;11.58;100.00
12987;BME280;58897;51.960;5.582;2023-05-20T03:45:22;102079.28;;;11.60;100.00
12987;BME280;58897;51.960;5.582;2023-05-20T03:47:49;102077.28;;;11.62;100.00
12987;BME280;58897;51.960;5.582;2023-05-20T03:50:16;102078.69;;;11.56;100.00
12987;BME280;58897;51.960;5.582;2023-05-20T03:52:42;102072.97;;;11.50;100.00
12987;BME280;58897;51.960;5.582;2023-05-20T03:55:09;102068.41;;;11.50;100.00
12987;BME280;58897;51.960;5.582;2023-05-20T03:57:35;102073.81;;;11.50;100.00
12987;BME280;58897;51.960;5.582;2023-05-20T04:00:03;102070.41;;;11.48;100.00
12987;BME280;58897;51.960;5.582;2023-05-20T04:02:35;102075.81;;;11.58;100.00
12987;BME280;58897;51.960;5.582;2023-05-20T04:05:02;102069.00;;;11.44;100.00
12987;BME280;58897;51.960;5.582;2023-05-20T04:07:29;102082.22;;;11.47;100.00
12987;BME280;58897;51.960;5.582;2023-05-20T04:09:56;102084.22;;;11.45;100.00
12987;BME280;58897;51.960;5.582;2023-05-20T04:12:24;102085.88;;;11.37;100.00
12987;BME280;58897;51.960;5.582;2023-05-20T04:14:59;102081.38;;;11.47;100.00
12987;BME280;58897;51.960;5.582;2023-05-20T04:17:30;102075.38;;;11.43;100.00
12987;BME280;58897;51.960;5.582;2023-05-20T04:19:56;102077.22;;;11.52;100.00
12987;BME280;58897;51.960;5.582;2023-05-20T04:22:25;102071.69;;;11.54;100.00
12987;BME280;58897;51.960;5.582;2023-05-20T04:24:52;102071.97;;;11.41;100.00
12987;BME280;58897;51.960;5.582;2023-05-20T04:27:19;102082.63;;;11.43;100.00
12987;BME280;58897;51.960;5.582;2023-05-20T04:29:47;102075.66;;;11.50;100.00
12987;BME280;58897;51.960;5.582;2023-05-20T04:32:18;102081.53;;;11.55;100.00
12987;BME280;58897;51.960;5.582;2023-05-20T04:34:45;102076.13;;;11.55;100.00
12987;BME280;58897;51.960;5.582;2023-05-20T04:37:12;102084.78;;;11.49;100.00
12987;BME280;58897;51.960;5.582;2023-05-20T04:39:39;102083.94;;;11.58;100.00
12987;BME280;58897;51.960;5.582;2023-05-20T04:42:05;102094.34;;;11.53;100.00
12987;BME280;58897;51.960;5.582;2023-05-20T04:44:32;102084.81;;;11.58;100.00
12987;BME280;58897;51.960;5.582;2023-05-20T04:46:58;102086.81;;;11.56;100.00
12987;BME280;58897;51.960;5.582;2023-05-20T04:49:25;102092.22;;;11.66;100.00
12987;BME280;58897;51.960;5.582;2023-05-20T04:51:52;102086.69;;;11.67;100.00
12987;BME280;58897;51.960;5.582;2023-05-20T04:54:20;102084.25;;;11.64;100.00
12987;BME280;58897;51.960;5.582;2023-05-20T04:56:47;102091.00;;;11.70;100.00
12987;BME280;58897;51.960;5.582;2023-05-20T04:59:14;102077.63;;;11.78;100.00
12987;BME280;58897;51.960;5.582;2023-05-20T05:01:40;102085.59;;;11.70;100.00
12987;BME280;58897;51.960;5.582;2023-05-20T05:04:10;102082.25;;;11.66;100.00
12987;BME280;58897;51.960;5.582;2023-05-20T05:06:37;102077.63;;;11.78;100.00
12987;BME280;58897;51.960;5.582;2023-05-20T05:09:03;102076.03;;;11.75;100.00
12987;BME280;58897;51.960;5.582;2023-05-20T05:11:30;102090.28;;;11.87;100.00
12987;BME280;58897;51.960;5.582;2023-05-20T05:13:56;102080.16;;;11.89;100.00
12987;BME280;58897;51.960;5.582;2023-05-20T05:16:23;102080.31;;;11.97;100.00
12987;BME280;58897;51.960;5.582;2023-05-20T05:18:50;102087.88;;;12.03;100.00
12987;BME280;58897;51.960;5.582;2023-05-20T05:21:16;102079.91;;;12.02;100.00
12987;BME280;58897;51.960;5.582;2023-05-20T05:23:43;102077.31;;;12.10;100.00
12987;BME280;58897;51.960;5.582;2023-05-20T05:26:09;102070.91;;;12.11;100.00
12987;BME280;58897;51.960;5.582;2023-05-20T05:28:36;102076.47;;;12.09;100.00
12987;BME280;58897;51.960;5.582;2023-05-20T05:31:03;102069.75;;;12.13;100.00
12987;BME280;58897;51.960;5.582;2023-05-20T05:33:29;102068.03;;;12.12;100.00
12987;BME280;58897;51.960;5.582;2023-05-20T05:35:56;102064.91;;;12.26;100.00
12987;BME280;58897;51.960;5.582;2023-05-20T05:38:24;102074.47;;;12.21;100.00
12987;BME280;58897;51.960;5.582;2023-05-20T05:40:51;102067.63;;;12.26;100.00
12987;BME280;58897;51.960;5.582;2023-05-20T05:43:18;102065.31;;;12.31;100.00
12987;BME280;58897;51.960;5.582;2023-05-20T05:45:45;102062.78;;;12.30;100.00
12987;BME280;58897;51.960;5.582;2023-05-20T05:48:12;102058.19;;;12.40;100.00
12987;BME280;58897;51.960;5.582;2023-05-20T05:50:43;102055.16;;;12.53;100.00
12987;BME280;58897;51.960;5.582;2023-05-20T05:53:10;102052.81;;;12.67;100.00
12987;BME280;58897;51.960;5.582;2023-05-20T05:55:36;102052.41;;;12.72;100.00
12987;BME280;58897;51.960;5.582;2023-05-20T05:58:03;102056.97;;;12.71;100.00
12987;BME280;58897;51.960;5.582;2023-05-20T06:00:29;102049.22;;;12.76;100.00
12987;BME280;58897;51.960;5.582;2023-05-20T06:02:56;102053.44;;;12.88;100.00
12987;BME280;58897;51.960;5.582;2023-05-20T06:05:23;102054.19;;;12.90;100.00
12987;BME280;58897;51.960;5.582;2023-05-20T06:07:52;102065.50;;;13.03;100.00
12987;BME280;58897;51.960;5.582;2023-05-20T06:10:20;102055.38;;;13.15;100.00
12987;BME280;58897;51.960;5.582;2023-05-20T06:12:46;102047.41;;;13.14;100.00
12987;BME280;58897;51.960;5.582;2023-05-20T06:15:13;102056.03;;;13.27;100.00
12987;BME280;58897;51.960;5.582;2023-05-20T06:17:40;102039.97;;;13.33;100.00
12987;BME280;58897;51.960;5.582;2023-05-20T06:20:07;102046.97;;;13.53;100.00
12987;BME280;58897;51.960;5.582;2023-05-20T06:22:33;102040.56;;;13.72;100.00
12987;BME280;58897;51.960;5.582;2023-05-20T06:25:00;102046.38;;;13.95;100.00
12987;BME280;58897;51.960;5.582;2023-05-20T06:27:27;102038.69;;;14.26;100.00
12987;BME280;58897;51.960;5.582;2023-05-20T06:29:54;102038.47;;;14.62;100.00
12987;BME280;58897;51.960;5.582;2023-05-20T06:32:20;102024.97;;;14.87;100.00
12987;BME280;58897;51.960;5.582;2023-05-20T06:34:47;102030.03;;;15.15;100.00
12987;BME280;58897;51.960;5.582;2023-05-20T06:37:14;102025.59;;;15.56;100.00
12987;BME280;58897;51.960;5.582;2023-05-20T06:39:40;102031.41;;;15.93;100.00
12987;BME280;58897;51.960;5.582;2023-05-20T06:42:07;102033.16;;;16.02;100.00
12987;BME280;58897;51.960;5.582;2023-05-20T06:44:33;102025.63;;;16.21;100.00
12987;BME280;58897;51.960;5.582;2023-05-20T06:47:00;102029.38;;;16.44;100.00
12987;BME280;58897;51.960;5.582;2023-05-20T06:49:26;102027.81;;;16.49;100.00
12987;BME280;58897;51.960;5.582;2023-05-20T06:51:53;102029.03;;;16.39;100.00
12987;BME280;58897;51.960;5.582;2023-05-20T06:54:20;102022.56;;;16.32;100.00
12987;BME280;58897;51.960;5.582;2023-05-20T06:56:47;102007.19;;;16.63;100.00
12987;BME280;58897;51.960;5.582;2023-05-20T06:59:13;102007.22;;;17.02;100.00
12987;BME280;58897;51.960;5.582;2023-05-20T07:01:40;102007.00;;;17.11;100.00
12987;BME280;58897;51.960;5.582;2023-05-20T07:04:06;102003.34;;;17.27;100.00
12987;BME280;58897;51.960;5.582;2023-05-20T07:06:33;102007.50;;;17.54;100.00
12987;BME280;58897;51.960;5.582;2023-05-20T07:09:00;102006.09;;;17.58;100.00
12987;BME280;58897;51.960;5.582;2023-05-20T07:11:26;102003.00;;;17.30;100.00
12987;BME280;58897;51.960;5.582;2023-05-20T07:13:53;102002.03;;;17.76;100.00
12987;BME280;58897;51.960;5.582;2023-05-20T07:16:20;101997.09;;;17.95;100.00
12987;BME280;58897;51.960;5.582;2023-05-20T07:18:46;101994.31;;;18.03;100.00
12987;BME280;58897;51.960;5.582;2023-05-20T07:21:13;101992.50;;;17.95;100.00
12987;BME280;58897;51.960;5.582;2023-05-20T07:23:39;101995.38;;;18.16;100.00
12987;BME280;58897;51.960;5.582;2023-05-20T07:26:06;101985.75;;;18.87;100.00
12987;BME280;58897;51.960;5.582;2023-05-20T07:28:32;101992.63;;;18.83;100.00
12987;BME280;58897;51.960;5.582;2023-05-20T07:30:59;102000.00;;;18.97;100.00
12987;BME280;58897;51.960;5.582;2023-05-20T07:33:26;101986.16;;;19.34;100.00
12987;BME280;58897;51.960;5.582;2023-05-20T07:35:52;101978.69;;;19.43;100.00
12987;BME280;58897;51.960;5.582;2023-05-20T07:38:20;101986.28;;;19.11;100.00
12987;BME280;58897;51.960;5.582;2023-05-20T07:40:46;101975.22;;;19.20;100.00
12987;BME280;58897;51.960;5.582;2023-05-20T07:43:13;101978.53;;;19.65;100.00
12987;BME280;58897;51.960;5.582;2023-05-20T07:45:39;101961.69;;;19.33;100.00
12987;BME280;58897;51.960;5.582;2023-05-20T07:48:06;101977.00;;;19.42;100.00
12987;BME280;58897;51.960;5.582;2023-05-20T07:50:34;101963.66;;;20.02;97.39
12987;BME280;58897;51.960;5.582;2023-05-20T07:53:01;101964.34;;;20.25;96.32
12987;BME280;58897;51.960;5.582;2023-05-20T07:55:27;101965.72;;;20.49;95.73
12987;BME280;58897;51.960;5.582;2023-05-20T07:57:54;101964.78;;;20.63;91.88
12987;BME280;58897;51.960;5.582;2023-05-20T08:00:21;101962.94;;;20.36;92.23
12987;BME280;58897;51.960;5.582;2023-05-20T08:02:47;101954.81;;;20.56;86.36
12987;BME280;58897;51.960;5.582;2023-05-20T08:05:14;101960.75;;;20.31;89.06
12987;BME280;58897;51.960;5.582;2023-05-20T08:07:40;101961.16;;;20.56;85.66
12987;BME280;58897;51.960;5.582;2023-05-20T08:10:07;101962.66;;;21.00;87.03
12987;BME280;58897;51.960;5.582;2023-05-20T08:12:34;101964.13;;;21.43;76.98
12987;BME280;58897;51.960;5.582;2023-05-20T08:15:01;101950.94;;;21.19;78.86
12987;BME280;58897;51.960;5.582;2023-05-20T08:17:27;101955.16;;;21.28;82.05
12987;BME280;58897;51.960;5.582;2023-05-20T08:19:54;101960.34;;;21.03;78.88
12987;BME280;58897;51.960;5.582;2023-05-20T08:22:20;101956.53;;;21.04;81.11
12987;BME280;58897;51.960;5.582;2023-05-20T08:24:47;101945.50;;;21.51;74.26
12987;BME280;58897;51.960;5.582;2023-05-20T08:27:13;101949.78;;;21.74;76.91
12987;BME280;58897;51.960;5.582;2023-05-20T08:29:40;101937.75;;;21.88;75.27
12987;BME280;58897;51.960;5.582;2023-05-20T08:32:06;101948.91;;;21.67;76.67
12987;BME280;58897;51.960;5.582;2023-05-20T08:34:33;101953.59;;;21.73;72.15
12987;BME280;58897;51.960;5.582;2023-05-20T08:36:59;101947.00;;;21.67;72.13
12987;BME280;58897;51.960;5.582;2023-05-20T08:39:26;101944.75;;;21.90;70.83
12987;BME280;58897;51.960;5.582;2023-05-20T08:41:53;101942.09;;;22.81;67.25
12987;BME280;58897;51.960;5.582;2023-05-20T08:44:20;101930.50;;;22.65;64.35
12987;BME280;58897;51.960;5.582;2023-05-20T08:46:47;101924.19;;;23.03;67.40
12987;BME280;58897;51.960;5.582;2023-05-20T08:49:14;101936.34;;;22.89;72.59
12987;BME280;58897;51.960;5.582;2023-05-20T08:51:41;101939.22;;;22.17;65.21
12987;BME280;58897;51.960;5.582;2023-05-20T08:54:09;101918.25;;;23.12;69.56
12987;BME280;58897;51.960;5.582;2023-05-20T08:56:37;101918.66;;;23.54;61.35
12987;BME280;58897;51.960;5.582;2023-05-20T08:59:04;101914.69;;;23.43;60.96
12987;BME280;58897;51.960;5.582;2023-05-20T09:01:33;101921.94;;;23.69;63.68
12987;BME280;58897;51.960;5.582;2023-05-20T09:04:02;101918.72;;;23.96;58.62
12987;BME280;58897;51.960;5.582;2023-05-20T09:06:29;101919.38;;;23.67;67.34
12987;BME280;58897;51.960;5.582;2023-05-20T09:08:55;101921.97;;;23.24;57.87
12987;BME280;58897;51.960;5.582;2023-05-20T09:11:22;101911.88;;;22.48;62.71
12987;BME280;58897;51.960;5.582;2023-05-20T09:13:49;101910.66;;;22.95;64.11
12987;BME280;58897;51.960;5.582;2023-05-20T09:16:16;101911.75;;;23.31;59.33
12987;BME280;58897;51.960;5.582;2023-05-20T09:18:42;101915.69;;;22.47;60.95
12987;BME280;58897;51.960;5.582;2023-05-20T09:21:09;101917.88;;;21.86;65.08
12987;BME280;58897;51.960;5.582;2023-05-20T09:23:36;101913.22;;;22.12;63.67
12987;BME280;58897;51.960;5.582;2023-05-20T09:26:03;101906.13;;;23.20;60.61
12987;BME280;58897;51.960;5.582;2023-05-20T09:28:30;101904.94;;;23.41;56.20
12987;BME280;58897;51.960;5.582;2023-05-20T09:30:58;101904.59;;;22.80;57.20
12987;BME280;58897;51.960;5.582;2023-05-20T09:33:31;101896.59;;;23.54;52.52
12987;BME280;58897;51.960;5.582;2023-05-20T09:36:08;101901.59;;;23.39;56.73
12987;BME280;58897;51.960;5.582;2023-05-20T09:38:39;101898.88;;;23.25;58.50
12987;BME280;58897;51.960;5.582;2023-05-20T09:41:12;101891.97;;;23.10;55.96
12987;BME280;58897;51.960;5.582;2023-05-20T09:43:40;101889.38;;;24.09;51.52
12987;BME280;58897;51.960;5.582;2023-05-20T09:46:07;101888.03;;;24.54;56.27
12987;BME280;58897;51.960;5.582;2023-05-20T09:48:35;101892.38;;;24.25;50.30
12987;BME280;58897;51.960;5.582;2023-05-20T09:51:03;101883.56;;;24.17;50.61
12987;BME280;58897;51.960;5.582;2023-05-20T09:53:30;101878.41;;;24.75;52.31
12987;BME280;58897;51.960;5.582;2023-05-20T09:55:57;101875.50;;;24.51;47.87
12987;BME280;58897;51.960;5.582;2023-05-20T09:58:24;101873.47;;;24.83;50.58
12987;BME280;58897;51.960;5.582;2023-05-20T10:00:51;101884.97;;;24.80;52.63
12987;BME280;58897;51.960;5.582;2023-05-20T10:03:22;101880.28;;;25.29;47.93
12987;BME280;58897;51.960;5.582;2023-05-20T10:08:57;101888.09;;;24.29;52.01
12987;BME280;58897;51.960;5.582;2023-05-20T10:11:46;101872.78;;;25.17;51.61
12987;BME280;58897;51.960;5.582;2023-05-20T10:17:12;101873.88;;;24.26;52.57
12987;BME280;58897;51.960;5.582;2023-05-20T10:19:42;101868.56;;;24.06;51.74
12987;BME280;58897;51.960;5.582;2023-05-20T10:22:10;101865.69;;;25.22;46.51
12987;BME280;58897;51.960;5.582;2023-05-20T10:24:38;101862.94;;;25.51;48.14
12987;BME280;58897;51.960;5.582;2023-05-20T10:27:11;101857.53;;;25.56;47.14
12987;BME280;58897;51.960;5.582;2023-05-20T10:29:59;101841.78;;;25.92;44.74
12987;BME280;58897;51.960;5.582;2023-05-20T10:32:27;101855.31;;;24.69;47.77
12987;BME280;58897;51.960;5.582;2023-05-20T10:35:02;101838.75;;;25.17;47.03
12987;BME280;58897;51.960;5.582;2023-05-20T10:37:48;101841.38;;;25.12;50.87
12987;BME280;58897;51.960;5.582;2023-05-20T10:40:18;101838.06;;;24.74;53.38
12987;BME280;58897;51.960;5.582;2023-05-20T10:42:45;101848.84;;;24.45;51.64
12987;BME280;58897;51.960;5.582;2023-05-20T10:45:33;101853.00;;;24.12;50.28
12987;BME280;58897;51.960;5.582;2023-05-20T10:48:02;101859.16;;;23.33;53.70
12987;BME280;58897;51.960;5.582;2023-05-20T10:50:36;101841.28;;;24.71;55.98
12987;BME280;58897;51.960;5.582;2023-05-20T10:53:10;101837.00;;;24.38;50.03
12987;BME280;58897;51.960;5.582;2023-05-20T10:55:52;101830.88;;;24.54;48.90
12987;BME280;58897;51.960;5.582;2023-05-20T10:58:21;101841.84;;;24.00;55.26
12987;BME280;58897;51.960;5.582;2023-05-20T11:00:52;101839.91;;;24.62;49.62
12987;BME280;58897;51.960;5.582;2023-05-20T11:03:22;101839.06;;;25.09;55.36
12987;BME280;58897;51.960;5.582;2023-05-20T11:05:50;101845.06;;;23.48;56.66
12987;BME280;58897;51.960;5.582;2023-05-20T11:08:17;101836.84;;;22.72;60.44
12987;BME280;58897;51.960;5.582;2023-05-20T11:10:57;101832.56;;;22.19;61.82
12987;BME280;58897;51.960;5.582;2023-05-20T11:13:24;101827.13;;;23.63;54.95
12987;BME280;58897;51.960;5.582;2023-05-20T11:15:51;101824.59;;;23.37;57.35
12987;BME280;58897;51.960;5.582;2023-05-20T11:18:18;101827.47;;;23.49;57.69
12987;BME280;58897;51.960;5.582;2023-05-20T11:20:45;101823.94;;;22.59;68.58
12987;BME280;58897;51.960;5.582;2023-05-20T11:23:13;101821.19;;;22.59;63.80
12987;BME280;58897;51.960;5.582;2023-05-20T11:25:40;101819.66;;;23.08;64.59
12987;BME280;58897;51.960;5.582;2023-05-20T11:28:11;101825.38;;;22.04;61.46
12987;BME280;58897;51.960;5.582;2023-05-20T11:30:38;101817.47;;;22.85;67.77
12987;BME280;58897;51.960;5.582;2023-05-20T11:33:05;101797.69;;;24.73;53.62
12987;BME280;58897;51.960;5.582;2023-05-20T11:35:31;101798.34;;;24.20;52.21
12987;BME280;58897;51.960;5.582;2023-05-20T11:38:03;101800.59;;;23.87;58.34
12987;BME280;58897;51.960;5.582;2023-05-20T11:40:31;101783.13;;;24.84;55.71
12987;BME280;58897;51.960;5.582;2023-05-20T11:43:13;101805.06;;;24.06;53.44
12987;BME280;58897;51.960;5.582;2023-05-20T11:45:41;101789.44;;;24.54;54.54
12987;BME280;58897;51.960;5.582;2023-05-20T11:48:09;101801.47;;;23.38;56.49
12987;BME280;58897;51.960;5.582;2023-05-20T11:50:39;101799.09;;;23.42;58.87
12987;BME280;58897;51.960;5.582;2023-05-20T11:53:16;101780.78;;;24.33;57.32
12987;BME280;58897;51.960;5.582;2023-05-20T11:55:45;101796.91;;;25.13;54.43
12987;BME280;58897;51.960;5.582;2023-05-20T11:58:28;101797.28;;;24.87;51.50
12987;BME280;58897;51.960;5.582;2023-05-20T12:00:56;101788.16;;;23.78;51.68
12987;BME280;58897;51.960;5.582;2023-05-20T12:03:39;101772.41;;;23.85;54.71
12987;BME280;58897;51.960;5.582;2023-05-20T12:06:06;101773.25;;;24.04;50.82
12987;BME280;58897;51.960;5.582;2023-05-20T12:08:32;101782.69;;;23.22;54.35
12987;BME280;58897;51.960;5.582;2023-05-20T12:10:59;101780.72;;;23.29;63.78
12987;BME280;58897;51.960;5.582;2023-05-20T12:13:25;101783.75;;;23.95;52.84
12987;BME280;58897;51.960;5.582;2023-05-20T12:15:52;101779.06;;;23.53;58.01
12987;BME280;58897;51.960;5.582;2023-05-20T12:18:18;101774.78;;;23.01;60.20
12987;BME280;58897;51.960;5.582;2023-05-20T12:20:45;101781.41;;;23.24;71.35
12987;BME280;58897;51.960;5.582;2023-05-20T12:23:11;101782.91;;;22.89;65.07
12987;BME280;58897;51.960;5.582;2023-05-20T12:25:38;101774.28;;;22.79;70.99
12987;BME280;58897;51.960;5.582;2023-05-20T12:28:05;101794.13;;;22.94;71.84
12987;BME280;58897;51.960;5.582;2023-05-20T12:30:32;101780.22;;;22.76;72.52
12987;BME280;58897;51.960;5.582;2023-05-20T12:32:58;101787.28;;;22.59;68.18
12987;BME280;58897;51.960;5.582;2023-05-20T12:35:36;101786.06;;;22.48;71.83
12987;BME280;58897;51.960;5.582;2023-05-20T12:38:03;101780.63;;;22.80;66.75
12987;BME280;58897;51.960;5.582;2023-05-20T12:40:30;101781.13;;;22.70;69.52
12987;BME280;58897;51.960;5.582;2023-05-20T12:42:56;101788.06;;;23.10;67.34
12987;BME280;58897;51.960;5.582;2023-05-20T12:45:24;101784.06;;;23.06;64.12
12987;BME280;58897;51.960;5.582;2023-05-20T12:47:50;101774.84;;;23.50;66.38
12987;BME280;58897;51.960;5.582;2023-05-20T12:50:17;101773.75;;;23.26;63.33
12987;BME280;58897;51.960;5.582;2023-05-20T12:52:44;101765.88;;;23.55;58.10
12987;BME280;58897;51.960;5.582;2023-05-20T12:55:11;101770.72;;;23.34;58.93